CheckWX is a tool to help pilots better visualize weather data.  It is not intended as a substitute for an official pre-flight weather briefing.

11:10:06 UTC

DTTJ METAR
Djerba Zarzis International Airport
Djerba, Tunisia
Current

10 mins ago

DTTJ 041100Z 36015KT 9999 FEW020 17/09 Q1017 NOSIG
Observed
Apr-4 @ 11:00 UTC
Wind
  • 360° at 15 KTS
Visibility
10,000+ meters
Flight Rules
VFR
Cloud Levels
  • Few at 2,000' AGL
Temperature
17°C / 63°F
Dewpoint
C / 48°F
Humidity
59%
Altimeter
30.03" Hg
Pressure
1016.92 hPa
Previous

40 mins ago

DTTJ 041030Z 36014KT 17/09 Q1017
Observed
Apr-4 @ 10:30 UTC
Wind
  • 360° at 14 KTS
Visibility
Cloud Levels
Temperature
17°C / 63°F
Dewpoint
C / 48°F
Humidity
59%
Altimeter
30.03" Hg
Pressure
1016.92 hPa
Previous

1 hour ago

DTTJ 041000Z 35012KT 9999 FEW020 17/09 Q1017 NOSIG
Observed
Apr-4 @ 10:00 UTC
Wind
  • 350° at 12 KTS
Visibility
10,000+ meters
Flight Rules
VFR
Cloud Levels
  • Few at 2,000' AGL
Temperature
17°C / 63°F
Dewpoint
C / 48°F
Humidity
59%
Altimeter
30.03" Hg
Pressure
1016.92 hPa